createdAt,value
2018-10-12T00:00:12.935Z,27.50
2018-10-12T00:02:41.340Z,25.80
2018-10-12T00:05:08.834Z,27.00
2018-10-12T00:07:36.491Z,27.03
2018-10-12T00:10:04.203Z,26.40
2018-10-12T00:12:31.492Z,27.20
2018-10-12T00:14:58.870Z,25.03
2018-10-12T00:17:26.173Z,27.17
2018-10-12T00:19:53.557Z,29.23
2018-10-12T00:22:20.850Z,26.50
2018-10-12T00:24:48.177Z,26.77
2018-10-12T00:27:15.461Z,27.63
2018-10-12T00:29:42.827Z,29.73
2018-10-12T00:32:10.154Z,30.00
2018-10-12T00:34:37.408Z,26.80
2018-10-12T00:37:04.721Z,28.33
2018-10-12T00:39:31.949Z,28.10
2018-10-12T00:41:59.289Z,29.00
2018-10-12T00:44:26.498Z,29.00
2018-10-12T00:46:54.759Z,27.23
2018-10-12T00:49:21.963Z,29.23
2018-10-12T00:51:49.253Z,30.93
2018-10-12T00:54:16.469Z,28.83
2018-10-12T00:56:43.678Z,29.60
2018-10-12T00:59:10.853Z,28.27
2018-10-12T01:01:38.018Z,26.70
2018-10-12T01:04:05.357Z,26.53
2018-10-12T01:06:32.779Z,29.50
2018-10-12T01:09:00.026Z,29.40
2018-10-12T01:11:27.265Z,28.67
2018-10-12T01:13:54.608Z,29.40
2018-10-12T01:16:21.920Z,30.23
2018-10-12T01:18:49.212Z,30.40
2018-10-12T01:21:16.532Z,29.33
2018-10-12T01:23:43.839Z,29.40
2018-10-12T01:26:11.130Z,29.80
2018-10-12T01:28:38.469Z,28.63
2018-10-12T01:31:05.785Z,29.00
2018-10-12T01:33:33.121Z,29.43
2018-10-12T01:36:00.420Z,28.50
2018-10-12T01:38:27.630Z,29.37
2018-10-12T01:40:55.089Z,28.60
2018-10-12T01:43:22.396Z,30.93
2018-10-12T01:45:49.683Z,31.63
2018-10-12T01:48:16.991Z,29.57
2018-10-12T01:50:44.391Z,31.37
2018-10-12T01:53:11.699Z,29.83
2018-10-12T01:55:39.072Z,31.53
2018-10-12T01:58:06.568Z,30.30
2018-10-12T02:00:33.994Z,28.33
2018-10-12T02:03:01.239Z,30.37
2018-10-12T02:05:28.500Z,30.93
2018-10-12T02:07:55.975Z,29.70
2018-10-12T02:10:23.252Z,28.80
2018-10-12T02:12:50.518Z,28.53
2018-10-12T02:15:17.790Z,29.90
2018-10-12T02:17:45.128Z,29.20
2018-10-12T02:20:17.032Z,28.80
2018-10-12T02:22:44.409Z,28.93
2018-10-12T02:25:11.978Z,29.50
2018-10-12T02:27:39.261Z,28.53
2018-10-12T02:30:07.327Z,29.23
2018-10-12T02:32:34.637Z,33.20
2018-10-12T02:35:02.008Z,28.47
2018-10-12T02:37:29.322Z,29.63
2018-10-12T02:39:57.211Z,30.13
2018-10-12T02:42:24.425Z,27.77
2018-10-12T02:44:51.756Z,28.80
2018-10-12T02:47:19.109Z,28.30
2018-10-12T02:49:46.434Z,28.20
2018-10-12T02:52:13.676Z,27.53
2018-10-12T02:54:41.084Z,28.80
2018-10-12T02:57:08.304Z,29.97
2018-10-12T02:59:35.703Z,26.83
2018-10-12T03:02:02.853Z,28.20
2018-10-12T03:04:30.050Z,27.83
2018-10-12T03:06:57.437Z,26.40
2018-10-12T03:09:24.710Z,28.07
2018-10-12T03:11:51.986Z,29.07
2018-10-12T03:14:19.191Z,27.27
2018-10-12T03:16:46.417Z,29.20
2018-10-12T03:19:13.748Z,28.80
2018-10-12T03:21:41.069Z,27.67
2018-10-12T03:24:08.353Z,27.97
2018-10-12T03:26:35.736Z,28.67
2018-10-12T03:29:02.959Z,30.40
2018-10-12T03:31:30.840Z,28.83
2018-10-12T03:33:58.220Z,29.43
2018-10-12T03:36:26.236Z,28.93
2018-10-12T03:38:54.153Z,28.97
2018-10-12T03:41:21.563Z,30.43
2018-10-12T03:43:49.008Z,29.00
2018-10-12T03:46:16.351Z,28.93
2018-10-12T03:48:43.617Z,27.87
2018-10-12T03:51:10.828Z,28.73
2018-10-12T03:53:38.136Z,30.17
2018-10-12T03:56:05.538Z,29.03
2018-10-12T03:58:32.836Z,30.27
2018-10-12T04:01:00.963Z,30.20
2018-10-12T04:03:28.110Z,30.87
2018-10-12T04:05:55.382Z,29.70
2018-10-12T04:08:22.616Z,30.60
2018-10-12T04:10:50.424Z,28.00
2018-10-12T04:13:17.713Z,28.87
2018-10-12T04:15:45.027Z,30.03
2018-10-12T04:18:12.301Z,29.37
2018-10-12T04:20:39.484Z,30.30
2018-10-12T04:23:06.717Z,30.33
2018-10-12T04:25:34.029Z,29.50
2018-10-12T04:28:01.575Z,29.37
2018-10-12T04:30:28.852Z,30.67
2018-10-12T04:32:56.100Z,30.00
2018-10-12T04:35:23.408Z,29.83
2018-10-12T04:37:50.919Z,29.73
2018-10-12T04:41:25.297Z,28.50
2018-10-12T04:43:54.129Z,28.10
2018-10-12T04:46:29.186Z,27.80
2018-10-12T04:48:56.524Z,28.67
2018-10-12T04:51:27.227Z,29.20
2018-10-12T04:53:54.678Z,28.30
2018-10-12T04:56:22.002Z,27.63
2018-10-12T04:58:49.391Z,28.00
2018-10-12T05:01:16.721Z,27.50
2018-10-12T05:03:43.863Z,28.90
2018-10-12T05:06:11.192Z,29.20
2018-10-12T05:08:38.454Z,29.47
2018-10-12T05:11:05.781Z,29.90
2018-10-12T05:13:34.095Z,29.83
2018-10-12T05:16:03.035Z,29.50
2018-10-12T05:18:30.554Z,29.50
2018-10-12T05:20:58.683Z,30.10
2018-10-12T05:23:26.041Z,29.27
2018-10-12T05:25:53.535Z,29.90
2018-10-12T05:28:20.877Z,30.20
2018-10-12T05:30:48.627Z,29.70
2018-10-12T05:33:15.868Z,40.17
2018-10-12T05:35:43.435Z,31.23
2018-10-12T05:38:10.851Z,29.03
2018-10-12T05:40:38.381Z,29.83
2018-10-12T05:43:05.697Z,31.47
2018-10-12T05:45:33.838Z,30.40
2018-10-12T05:48:12.573Z,35.37
2018-10-12T05:50:39.856Z,31.80
2018-10-12T05:53:07.110Z,30.50
2018-10-12T05:55:34.995Z,29.23
2018-10-12T05:58:02.310Z,32.47
2018-10-12T06:00:34.857Z,30.27
2018-10-12T06:03:02.273Z,32.77
2018-10-12T06:05:29.996Z,29.40
2018-10-12T06:07:59.434Z,29.83
2018-10-12T06:10:26.857Z,30.20
2018-10-12T06:12:54.142Z,30.97
2018-10-12T06:15:21.540Z,31.60
2018-10-12T06:17:48.700Z,30.87
2018-10-12T06:20:15.981Z,29.77
2018-10-12T06:22:43.180Z,33.40
2018-10-12T06:25:10.486Z,30.63
2018-10-12T06:27:37.796Z,31.23
2018-10-12T06:30:05.289Z,33.80
2018-10-12T06:32:32.544Z,32.03
2018-10-12T06:34:59.933Z,30.77
2018-10-12T06:37:27.196Z,32.40
2018-10-12T06:39:54.533Z,32.70
2018-10-12T06:42:21.953Z,31.20
2018-10-12T06:44:49.214Z,30.97
2018-10-12T06:47:16.552Z,32.63
2018-10-12T06:49:44.801Z,30.13
2018-10-12T06:52:12.252Z,32.30
2018-10-12T06:54:39.695Z,32.77
2018-10-12T06:57:06.965Z,31.10
2018-10-12T06:59:34.376Z,32.17
2018-10-12T07:02:01.746Z,28.70
2018-10-12T07:04:29.104Z,33.00
2018-10-12T07:06:56.490Z,31.40
2018-10-12T07:09:24.820Z,31.80
2018-10-12T07:11:52.089Z,30.50
2018-10-12T07:14:19.348Z,32.43
2018-10-12T07:16:46.594Z,32.23
2018-10-12T07:19:13.816Z,32.70
2018-10-12T07:21:41.109Z,30.20
2018-10-12T07:24:08.398Z,30.03
2018-10-12T07:26:35.905Z,30.50
2018-10-12T07:29:03.367Z,32.70
2018-10-12T07:31:30.779Z,31.40
2018-10-12T07:33:58.181Z,30.53
2018-10-12T07:36:25.677Z,33.33
2018-10-12T07:38:53.067Z,32.60
2018-10-12T07:41:21.004Z,31.47
2018-10-12T07:43:48.271Z,32.30
2018-10-12T07:46:15.504Z,29.73
2018-10-12T07:48:42.808Z,30.90
2018-10-12T07:51:11.009Z,30.77
2018-10-12T07:53:38.177Z,31.43
2018-10-12T07:56:06.497Z,30.73
2018-10-12T07:58:33.728Z,28.97
2018-10-12T08:01:00.968Z,29.53
2018-10-12T08:03:28.319Z,30.60
2018-10-12T08:05:55.514Z,30.10
2018-10-12T08:08:22.775Z,31.20
2018-10-12T08:10:50.477Z,29.70
2018-10-12T08:13:17.776Z,29.10
2018-10-12T08:15:45.204Z,30.83
2018-10-12T08:18:14.660Z,29.10
2018-10-12T08:20:42.024Z,28.93
2018-10-12T08:23:09.273Z,28.80
2018-10-12T08:25:36.626Z,27.27
2018-10-12T08:28:03.918Z,30.00
2018-10-12T08:30:31.205Z,28.33
2018-10-12T08:32:58.489Z,30.80
2018-10-12T08:35:25.708Z,29.53
2018-10-12T08:37:53.161Z,27.50
2018-10-12T08:40:20.452Z,30.60
2018-10-12T08:42:47.765Z,29.33
2018-10-12T08:45:15.063Z,28.63
2018-10-12T08:47:42.268Z,28.27
2018-10-12T08:50:09.836Z,29.27
2018-10-12T08:52:37.256Z,27.93
2018-10-12T08:55:04.565Z,27.47
2018-10-12T08:57:31.955Z,28.33
2018-10-12T08:59:59.261Z,27.53
2018-10-12T09:02:26.549Z,28.67
2018-10-12T09:04:53.965Z,27.70
2018-10-12T09:07:21.238Z,27.73
2018-10-12T09:09:48.643Z,25.63
2018-10-12T09:12:16.138Z,26.20
2018-10-12T09:14:43.344Z,26.63
2018-10-12T09:17:12.789Z,24.93
2018-10-12T09:19:40.034Z,26.33
2018-10-12T09:22:07.433Z,26.33
2018-10-12T09:24:34.781Z,22.93
2018-10-12T09:27:02.265Z,23.33
2018-10-12T09:29:29.653Z,23.00
2018-10-12T09:31:56.955Z,21.83
2018-10-12T09:34:24.291Z,24.97
2018-10-12T09:36:51.666Z,21.90
2018-10-12T09:39:19.209Z,20.90
2018-10-12T09:41:46.488Z,21.37
2018-10-12T09:44:13.814Z,22.60
2018-10-12T09:46:41.013Z,18.87
2018-10-12T09:49:08.564Z,16.93
2018-10-12T09:51:35.975Z,15.33
2018-10-12T09:54:03.301Z,16.70
2018-10-12T09:56:30.593Z,15.27
2018-10-12T09:58:57.843Z,12.60
2018-10-12T10:01:31.102Z,12.00
2018-10-12T10:04:04.277Z,12.80
2018-10-12T10:06:31.635Z,11.53
2018-10-12T10:08:58.873Z,10.80
2018-10-12T10:11:26.365Z,10.80
2018-10-12T10:13:55.688Z,11.17
2018-10-12T10:16:23.051Z,10.20
2018-10-12T10:18:50.784Z,10.90
2018-10-12T10:21:18.481Z,10.13
2018-10-12T10:23:45.780Z,11.83
2018-10-12T10:26:13.958Z,10.43
2018-10-12T10:28:41.278Z,9.13
2018-10-12T10:31:08.633Z,9.70
2018-10-12T10:33:36.026Z,9.90
2018-10-12T10:36:03.384Z,9.73
2018-10-12T10:38:30.648Z,9.70
2018-10-12T10:40:58.069Z,9.60
2018-10-12T10:43:25.489Z,8.43
2018-10-12T10:45:52.834Z,9.90
2018-10-12T10:48:20.080Z,10.47
2018-10-12T10:50:47.303Z,8.73
2018-10-12T10:53:15.508Z,8.93
2018-10-12T10:55:42.899Z,8.60
2018-10-12T10:58:10.206Z,9.60
2018-10-12T11:00:37.569Z,8.83
2018-10-12T11:03:05.227Z,8.27
2018-10-12T11:05:39.256Z,7.90
2018-10-12T11:08:06.745Z,7.90
2018-10-12T11:10:34.015Z,7.63
2018-10-12T11:13:01.536Z,8.80
2018-10-12T11:15:29.000Z,8.93
2018-10-12T11:17:56.311Z,8.20
2018-10-12T11:20:24.099Z,7.30
2018-10-12T11:22:51.463Z,7.07
2018-10-12T11:25:18.878Z,8.07
2018-10-12T11:27:49.128Z,7.90
2018-10-12T11:32:57.265Z,8.20
2018-10-12T11:35:24.622Z,6.87
2018-10-12T11:37:52.928Z,7.03
2018-10-12T11:40:21.401Z,6.57
2018-10-12T11:43:00.081Z,6.77
2018-10-12T11:45:27.685Z,7.27
2018-10-12T11:47:55.294Z,8.17
2018-10-12T11:50:22.728Z,7.70
2018-10-12T11:52:50.766Z,8.60
2018-10-12T11:55:18.438Z,7.40
2018-10-12T11:57:45.790Z,7.10
2018-10-12T12:00:13.176Z,9.57
2018-10-12T12:02:40.484Z,8.73
2018-10-12T12:05:08.733Z,12.37
2018-10-12T12:07:36.133Z,12.97
2018-10-12T12:10:03.727Z,12.73
2018-10-12T12:12:31.360Z,13.60
2018-10-12T12:14:58.694Z,8.30
2018-10-12T12:17:27.083Z,7.30
2018-10-12T12:19:54.337Z,8.30
2018-10-12T12:22:21.708Z,7.30
2018-10-12T12:24:49.130Z,5.93
2018-10-12T12:27:16.874Z,6.30
2018-10-12T12:29:44.216Z,6.30
2018-10-12T12:32:11.484Z,6.33
2018-10-12T12:34:38.914Z,6.40
2018-10-12T12:37:06.204Z,6.00
2018-10-12T12:39:33.466Z,5.80
2018-10-12T12:42:00.766Z,7.50
2018-10-12T12:44:28.947Z,5.97
2018-10-12T12:46:56.994Z,6.27
2018-10-12T12:49:24.659Z,5.97
2018-10-12T12:51:52.052Z,5.70
2018-10-12T12:54:19.389Z,5.70
2018-10-12T12:56:46.704Z,5.77
2018-10-12T12:59:14.064Z,6.40
2018-10-12T13:01:41.371Z,6.30
2018-10-12T13:04:09.537Z,5.60
2018-10-12T13:06:36.978Z,5.83
2018-10-12T13:09:06.400Z,5.33
2018-10-12T13:11:33.739Z,5.60
2018-10-12T13:14:02.282Z,5.77
2018-10-12T13:16:29.867Z,5.60
2018-10-12T13:18:57.280Z,5.07
2018-10-12T13:21:24.666Z,5.30
2018-10-12T13:23:52.007Z,5.70
2018-10-12T13:26:19.483Z,4.93
2018-10-12T13:28:47.890Z,6.37
2018-10-12T13:31:15.380Z,5.50
2018-10-12T13:33:42.825Z,5.43
2018-10-12T13:36:10.520Z,5.73
2018-10-12T13:38:37.815Z,7.17
2018-10-12T13:41:08.568Z,5.50
2018-10-12T13:43:35.862Z,5.97
2018-10-12T13:46:03.521Z,5.53
2018-10-12T13:48:31.276Z,5.70
2018-10-12T13:50:58.679Z,6.70
2018-10-12T13:53:25.983Z,6.10
2018-10-12T13:55:53.491Z,6.57
2018-10-12T13:58:20.774Z,5.87
2018-10-12T14:00:48.075Z,5.50
2018-10-12T14:03:15.341Z,7.20
2018-10-12T14:05:42.793Z,5.40
2018-10-12T14:08:10.314Z,4.83
2018-10-12T14:10:37.848Z,5.30
2018-10-12T14:13:05.611Z,5.37
2018-10-12T14:15:32.835Z,5.70
2018-10-12T14:18:00.088Z,5.40
2018-10-12T14:20:27.554Z,5.40
2018-10-12T14:22:55.439Z,5.63
2018-10-12T14:25:22.664Z,5.27
2018-10-12T14:27:49.882Z,4.80
2018-10-12T14:30:17.126Z,5.53
2018-10-12T14:32:44.409Z,5.10
2018-10-12T14:35:12.817Z,6.20
2018-10-12T14:37:40.102Z,5.27
2018-10-12T14:40:07.504Z,7.60
2018-10-12T14:42:34.722Z,5.13
2018-10-12T14:45:02.164Z,5.00
2018-10-12T14:47:29.381Z,5.20
2018-10-12T14:49:56.706Z,5.70
2018-10-12T14:52:24.069Z,5.87
2018-10-12T14:54:51.302Z,4.60
2018-10-12T14:57:19.520Z,4.87
2018-10-12T14:59:47.748Z,4.27
2018-10-12T15:02:15.411Z,4.30
2018-10-12T15:04:43.145Z,4.60
2018-10-12T15:07:10.576Z,4.73
2018-10-12T15:09:37.817Z,4.80
2018-10-12T15:12:05.126Z,4.10
2018-10-12T15:14:43.935Z,4.87
2018-10-12T15:17:11.300Z,5.00
2018-10-12T15:19:39.501Z,4.47
2018-10-12T15:22:06.768Z,5.00
2018-10-12T15:24:34.077Z,4.57
2018-10-12T15:27:01.383Z,5.43
2018-10-12T15:29:28.791Z,4.63
2018-10-12T15:31:55.964Z,4.37
2018-10-12T15:34:23.395Z,4.63
2018-10-12T15:36:51.067Z,5.20
2018-10-12T15:39:18.503Z,4.73
2018-10-12T15:41:45.813Z,4.17
2018-10-12T15:44:13.227Z,4.60
2018-10-12T15:46:41.158Z,4.57
2018-10-12T15:49:08.520Z,5.60
2018-10-12T15:51:35.960Z,5.13
2018-10-12T15:54:03.137Z,5.00
2018-10-12T15:56:31.804Z,5.93
2018-10-12T15:58:59.065Z,6.30
2018-10-12T16:01:26.318Z,6.63
2018-10-12T16:03:53.557Z,7.00
2018-10-12T16:06:21.278Z,7.00
2018-10-12T16:08:48.588Z,6.23
2018-10-12T16:11:15.887Z,6.90
2018-10-12T16:13:43.201Z,5.07
2018-10-12T16:16:10.440Z,5.90
2018-10-12T16:18:37.713Z,5.50
2018-10-12T16:21:05.273Z,5.50
2018-10-12T16:23:32.744Z,6.20
2018-10-12T16:26:17.036Z,6.93
2018-10-12T16:28:44.320Z,6.60
2018-10-12T16:31:11.662Z,9.10
2018-10-12T16:33:38.957Z,12.63
2018-10-12T16:36:06.322Z,13.17
2018-10-12T16:38:40.295Z,11.83
2018-10-12T16:41:07.580Z,9.20
2018-10-12T16:43:34.876Z,8.33
2018-10-12T16:46:02.626Z,8.30
2018-10-12T16:48:30.913Z,8.10
2018-10-12T16:50:58.223Z,8.13
2018-10-12T16:53:25.504Z,8.70
2018-10-12T16:55:52.749Z,9.33
2018-10-12T16:58:24.150Z,10.67
2018-10-12T17:00:51.304Z,9.43
2018-10-12T17:03:18.601Z,11.13
2018-10-12T17:05:45.860Z,9.20
2018-10-12T17:08:13.136Z,10.13
2018-10-12T17:10:40.362Z,10.70
2018-10-12T17:13:12.304Z,11.40
2018-10-12T17:15:39.631Z,9.63
2018-10-12T17:18:08.063Z,9.20
2018-10-12T17:20:35.632Z,12.03
2018-10-12T17:23:02.885Z,16.67
2018-10-12T17:25:30.340Z,12.07
2018-10-12T17:27:57.741Z,11.00
2018-10-12T17:30:26.635Z,10.93
2018-10-12T17:32:53.899Z,14.70
2018-10-12T17:35:24.314Z,14.37
2018-10-12T17:37:51.764Z,15.30
2018-10-12T17:40:23.268Z,22.10
2018-10-12T17:42:50.872Z,28.73
2018-10-12T17:45:18.268Z,24.10
2018-10-12T17:47:47.602Z,16.10
2018-10-12T17:50:14.996Z,18.30
2018-10-12T17:52:43.140Z,15.43
2018-10-12T17:55:10.548Z,17.63
2018-10-12T17:57:37.829Z,15.00
2018-10-12T18:00:09.318Z,14.33
2018-10-12T18:02:36.864Z,16.97
2018-10-12T18:05:04.303Z,17.00
2018-10-12T18:07:31.706Z,14.47
2018-10-12T18:09:59.673Z,14.07
2018-10-12T18:12:34.129Z,13.77
2018-10-12T18:15:05.520Z,11.60
2018-10-12T18:17:33.666Z,11.77
2018-10-12T18:20:01.167Z,11.87
2018-10-12T18:22:28.510Z,11.17
2018-10-12T18:24:55.825Z,12.33
2018-10-12T18:27:23.254Z,11.07
2018-10-12T18:29:50.580Z,10.57
2018-10-12T18:32:17.952Z,9.50
2018-10-12T18:34:45.321Z,9.63
2018-10-12T18:37:15.912Z,9.97
2018-10-12T18:39:43.337Z,8.90
2018-10-12T18:42:10.644Z,10.53
2018-10-12T18:44:37.998Z,9.20
2018-10-12T18:47:05.435Z,9.77
2018-10-12T18:49:32.765Z,10.17
2018-10-12T18:52:00.142Z,10.60
2018-10-12T18:54:27.573Z,9.20
2018-10-12T18:56:54.836Z,10.40
2018-10-12T18:59:22.322Z,10.60
2018-10-12T19:01:49.672Z,11.73
2018-10-12T19:04:17.186Z,12.10
2018-10-12T19:06:47.862Z,11.07
2018-10-12T19:09:15.310Z,13.27
2018-10-12T19:11:42.704Z,12.00
2018-10-12T19:14:09.990Z,11.50
2018-10-12T19:16:37.399Z,11.27
2018-10-12T19:19:05.080Z,11.23
2018-10-12T19:21:32.414Z,14.70
2018-10-12T19:23:59.789Z,12.13
2018-10-12T19:26:28.083Z,14.60
2018-10-12T19:28:55.442Z,18.07
2018-10-12T19:31:23.857Z,15.60
2018-10-12T19:33:51.036Z,14.30
2018-10-12T19:36:18.407Z,13.67
2018-10-12T19:38:45.779Z,14.33
2018-10-12T19:41:13.100Z,14.63
2018-10-12T19:43:40.606Z,15.40
2018-10-12T19:46:07.979Z,16.13
2018-10-12T19:48:35.292Z,17.03
2018-10-12T19:51:02.547Z,15.50
2018-10-12T19:54:36.298Z,14.30
2018-10-12T19:57:03.576Z,15.90
2018-10-12T19:59:31.202Z,16.60
2018-10-12T20:01:58.478Z,16.60
2018-10-12T20:04:25.759Z,16.03
2018-10-12T20:06:53.176Z,16.37
2018-10-12T20:09:20.462Z,19.23
2018-10-12T20:11:47.720Z,17.90
2018-10-12T20:14:14.930Z,18.03
2018-10-12T20:16:42.256Z,19.23
2018-10-12T20:19:09.685Z,18.70
2018-10-12T20:21:36.983Z,21.50
2018-10-12T20:24:04.415Z,18.40
2018-10-12T20:26:31.720Z,17.30
2018-10-12T20:28:58.929Z,15.97
2018-10-12T20:31:34.455Z,16.80
2018-10-12T20:34:01.679Z,16.50
2018-10-12T20:36:29.012Z,15.03
2018-10-12T20:38:56.401Z,16.50
2018-10-12T20:41:23.686Z,16.60
2018-10-12T20:43:51.015Z,15.80
2018-10-12T20:46:18.330Z,16.63
2018-10-12T20:48:45.731Z,16.33
2018-10-12T20:51:14.320Z,14.90
2018-10-12T20:53:41.611Z,18.87
2018-10-12T20:56:08.882Z,17.70
2018-10-12T20:58:36.028Z,14.47
2018-10-12T21:01:03.272Z,15.27
2018-10-12T21:03:30.810Z,13.07
2018-10-12T21:05:58.132Z,13.57
2018-10-12T21:08:25.437Z,13.43
2018-10-12T21:10:53.011Z,13.60
2018-10-12T21:13:23.542Z,14.57
2018-10-12T21:15:50.830Z,14.40
2018-10-12T21:18:18.502Z,16.03
2018-10-12T21:20:46.424Z,15.43
2018-10-12T21:23:13.712Z,14.07
2018-10-12T21:25:40.986Z,13.43
2018-10-12T21:28:08.568Z,13.93
2018-10-12T21:30:35.893Z,15.50
2018-10-12T21:33:03.584Z,14.40
2018-10-12T21:35:30.875Z,15.50
2018-10-12T21:37:58.207Z,16.00
2018-10-12T21:40:28.516Z,16.10
2018-10-12T21:42:55.647Z,15.87
2018-10-12T21:45:22.823Z,14.53
2018-10-12T21:47:50.030Z,14.87
2018-10-12T21:50:20.742Z,14.70
2018-10-12T21:52:48.184Z,14.83
2018-10-12T21:55:15.412Z,14.53
2018-10-12T21:57:43.661Z,13.77
2018-10-12T22:00:11.997Z,14.30
2018-10-12T22:02:39.340Z,13.70
2018-10-12T22:05:08.140Z,13.27
2018-10-12T22:07:36.200Z,13.67
2018-10-12T22:10:03.514Z,14.13
2018-10-12T22:12:32.631Z,14.23
2018-10-12T22:15:00.325Z,13.80
2018-10-12T22:17:28.217Z,14.33
2018-10-12T22:19:56.273Z,13.97
2018-10-12T22:22:23.747Z,13.60
2018-10-12T22:24:51.157Z,14.70
2018-10-12T22:27:18.481Z,13.20
2018-10-12T22:29:45.916Z,14.90
2018-10-12T22:32:13.348Z,21.87
2018-10-12T22:34:40.647Z,21.80
2018-10-12T22:37:09.273Z,22.43
2018-10-12T22:39:36.917Z,20.50
2018-10-12T22:42:04.208Z,20.77
2018-10-12T22:44:31.538Z,18.60
2018-10-12T22:49:31.123Z,17.93
2018-10-12T22:51:58.526Z,18.60
2018-10-12T22:54:26.296Z,18.70
2018-10-12T22:56:53.601Z,18.83
2018-10-12T22:59:20.933Z,17.53
2018-10-12T23:01:48.292Z,17.40
2018-10-12T23:04:15.576Z,18.20
2018-10-12T23:06:43.112Z,15.47
2018-10-12T23:09:10.747Z,15.93
2018-10-12T23:11:38.745Z,16.03
2018-10-12T23:14:06.368Z,16.23
2018-10-12T23:16:33.923Z,15.00
2018-10-12T23:19:01.123Z,16.97
2018-10-12T23:21:28.346Z,15.13
2018-10-12T23:23:55.630Z,15.10
2018-10-12T23:26:22.925Z,15.53
2018-10-12T23:28:50.084Z,13.80
2018-10-12T23:31:17.308Z,15.00
2018-10-12T23:34:01.257Z,13.43
2018-10-12T23:36:28.891Z,14.30
2018-10-12T23:38:56.365Z,12.57
2018-10-12T23:41:23.642Z,14.13
2018-10-12T23:43:50.853Z,13.93
2018-10-12T23:46:18.069Z,14.07
2018-10-12T23:48:45.268Z,13.90
2018-10-12T23:51:12.508Z,14.33
2018-10-12T23:53:39.692Z,15.43
2018-10-12T23:56:07.917Z,13.67
2018-10-12T23:58:35.265Z,12.40
